createdAt,value
2023-01-27T00:02:12.854Z,83.45
2023-01-27T00:04:39.740Z,83.35
2023-01-27T00:07:13.415Z,83.55
2023-01-27T00:09:41.950Z,83.49
2023-01-27T00:12:44.542Z,83.72
2023-01-27T00:15:12.991Z,83.55
2023-01-27T00:17:46.506Z,83.67
2023-01-27T00:20:13.651Z,83.79
2023-01-27T00:23:06.497Z,83.82
2023-01-27T00:25:33.267Z,83.88
2023-01-27T00:28:06.505Z,84.17
2023-01-27T00:30:33.242Z,84.02
2023-01-27T00:33:25.514Z,84.08
2023-01-27T00:36:08.502Z,84.80
2023-01-27T00:38:42.032Z,84.75
2023-01-27T00:41:27.479Z,84.75
2023-01-27T00:43:54.732Z,84.36
2023-01-27T00:46:31.531Z,84.21
2023-01-27T00:49:04.604Z,83.67
2023-01-27T00:51:31.322Z,83.71
2023-01-27T00:54:05.597Z,83.69
2023-01-27T00:56:45.543Z,83.56
2023-01-27T00:59:18.539Z,83.45
2023-01-27T01:01:45.165Z,83.45
2023-01-27T01:04:18.579Z,83.52
2023-01-27T01:06:51.486Z,83.69
2023-01-27T01:09:18.147Z,83.93
2023-01-27T01:11:51.537Z,83.58
2023-01-27T01:14:18.208Z,83.88
2023-01-27T01:16:51.544Z,83.84
2023-01-27T01:19:18.201Z,83.85
2023-01-27T01:21:51.586Z,84.16
2023-01-27T01:24:18.359Z,84.25
2023-01-27T01:26:51.531Z,84.40
2023-01-27T01:29:18.373Z,84.57
2023-01-27T01:31:51.575Z,84.79
2023-01-27T01:34:24.550Z,84.83
2023-01-27T01:36:51.299Z,84.97
2023-01-27T01:39:24.535Z,85.07
2023-01-27T01:41:57.562Z,85.21
2023-01-27T01:44:33.518Z,85.22
2023-01-27T01:47:00.392Z,85.38
2023-01-27T01:49:39.537Z,85.59
2023-01-27T01:52:18.280Z,85.65
2023-01-27T01:54:57.555Z,85.78
2023-01-27T01:57:49.577Z,85.79
2023-01-27T02:00:23.500Z,86.06
2023-01-27T02:02:51.627Z,85.89
2023-01-27T02:05:31.500Z,85.78
2023-01-27T02:08:05.356Z,85.81
2023-01-27T02:10:40.667Z,85.88
2023-01-27T02:13:07.452Z,85.69
2023-01-27T02:15:41.614Z,85.89
2023-01-27T02:18:08.667Z,85.95
2023-01-27T02:20:53.610Z,85.86
2023-01-27T02:23:48.330Z,86.04
2023-01-27T02:26:36.550Z,86.07
2023-01-27T02:29:13.569Z,86.29
2023-01-27T02:31:47.662Z,86.24
2023-01-27T02:34:24.618Z,85.85
2023-01-27T02:37:02.561Z,85.73
2023-01-27T02:39:44.654Z,85.89
2023-01-27T02:42:20.543Z,85.77
2023-01-27T02:44:47.334Z,85.67
2023-01-27T02:47:20.659Z,85.46
2023-01-27T02:49:53.550Z,85.83
2023-01-27T02:52:27.605Z,85.68
2023-01-27T02:55:00.635Z,85.25
2023-01-27T02:57:34.018Z,85.64
2023-01-27T03:00:07.926Z,85.41
2023-01-27T03:02:41.655Z,85.41
2023-01-27T03:05:08.746Z,85.45
2023-01-27T03:07:35.375Z,85.65
2023-01-27T03:10:08.586Z,85.99
2023-01-27T03:12:35.311Z,85.95
2023-01-27T03:15:27.674Z,85.75
2023-01-27T03:18:13.482Z,85.97
2023-01-27T03:20:47.740Z,86.16
2023-01-27T03:23:16.465Z,86.15
2023-01-27T03:25:51.569Z,86.22
2023-01-27T03:28:18.427Z,86.09
2023-01-27T03:30:45.389Z,86.15
2023-01-27T03:33:18.594Z,87.08
2023-01-27T03:36:10.585Z,86.54
2023-01-27T03:38:55.874Z,86.55
2023-01-27T03:41:47.598Z,86.68
2023-01-27T03:44:39.626Z,86.79
2023-01-27T03:47:12.612Z,86.89
2023-01-27T03:49:39.346Z,86.98
2023-01-27T03:52:12.594Z,86.81
2023-01-27T03:54:45.530Z,86.90
2023-01-27T03:57:25.630Z,86.76
2023-01-27T03:59:58.667Z,86.92
2023-01-27T04:02:43.777Z,86.65
2023-01-27T04:05:35.672Z,87.25
2023-01-27T04:08:08.570Z,86.73
2023-01-27T04:10:35.417Z,87.17
2023-01-27T04:13:08.603Z,87.11
2023-01-27T04:15:41.696Z,86.99
2023-01-27T04:18:08.323Z,86.93
2023-01-27T04:20:41.628Z,86.96
2023-01-27T04:23:08.359Z,87.09
2023-01-27T04:25:41.811Z,86.86
2023-01-27T04:28:14.573Z,86.64
2023-01-27T04:30:47.677Z,86.81
2023-01-27T04:33:15.908Z,86.86
2023-01-27T04:35:52.607Z,86.85
2023-01-27T04:38:25.669Z,86.59
2023-01-27T04:40:58.614Z,86.46
2023-01-27T04:43:31.616Z,86.30
2023-01-27T04:45:58.324Z,86.28
2023-01-27T04:48:31.628Z,86.26
2023-01-27T04:50:58.268Z,86.09
2023-01-27T04:53:38.592Z,86.27
2023-01-27T04:56:22.755Z,86.87
2023-01-27T04:58:56.643Z,86.89
2023-01-27T05:01:23.281Z,86.78
2023-01-27T05:03:49.925Z,86.80
2023-01-27T05:06:23.671Z,87.11
2023-01-27T05:08:50.981Z,87.51
2023-01-27T05:11:18.586Z,87.25
2023-01-27T05:13:52.612Z,87.39
2023-01-27T05:16:24.613Z,87.68
2023-01-27T05:18:59.589Z,87.52
2023-01-27T05:21:37.601Z,87.84
2023-01-27T05:24:04.547Z,87.50
2023-01-27T05:26:37.635Z,87.72
2023-01-27T05:29:04.299Z,87.32
2023-01-27T05:31:38.711Z,87.19
2023-01-27T05:34:11.618Z,87.41
2023-01-27T05:36:44.650Z,87.88
2023-01-27T05:39:12.001Z,87.77
2023-01-27T05:41:45.655Z,87.72
2023-01-27T05:44:25.636Z,87.59
2023-01-27T05:46:52.299Z,87.73
2023-01-27T05:49:25.632Z,87.78
2023-01-27T05:51:58.671Z,87.68
2023-01-27T05:54:25.313Z,87.87
2023-01-27T05:57:05.665Z,87.75
2023-01-27T05:59:32.257Z,87.42
2023-01-27T06:02:05.722Z,87.57
2023-01-27T06:04:32.422Z,87.80
2023-01-27T06:07:05.642Z,87.46
2023-01-27T06:09:38.613Z,87.56
2023-01-27T06:12:11.568Z,87.72
2023-01-27T06:14:38.151Z,88.07
2023-01-27T06:17:11.648Z,88.04
2023-01-27T06:19:44.631Z,88.00
2023-01-27T06:22:17.726Z,88.03
2023-01-27T06:24:44.347Z,87.94
2023-01-27T06:27:17.637Z,87.66
2023-01-27T06:29:50.731Z,87.73
2023-01-27T06:32:17.428Z,87.76
2023-01-27T06:34:50.647Z,87.24
2023-01-27T06:37:17.432Z,87.57
2023-01-27T06:39:50.633Z,87.57
2023-01-27T06:42:23.688Z,87.14
2023-01-27T06:44:50.275Z,87.29
2023-01-27T06:47:23.622Z,87.03
2023-01-27T06:49:50.192Z,87.03
2023-01-27T06:52:23.630Z,86.86
2023-01-27T06:54:50.287Z,87.02
2023-01-27T06:57:29.645Z,86.98
2023-01-27T06:59:56.587Z,86.72
2023-01-27T07:02:29.770Z,86.69
2023-01-27T07:04:56.552Z,86.71
2023-01-27T07:07:29.629Z,86.36
2023-01-27T07:10:02.704Z,86.40
2023-01-27T07:12:29.723Z,86.21
2023-01-27T07:15:02.714Z,86.44
2023-01-27T07:17:29.461Z,86.69
2023-01-27T07:20:02.733Z,86.35
2023-01-27T07:22:29.574Z,86.48
2023-01-27T07:25:02.667Z,86.35
2023-01-27T07:27:29.674Z,86.36
2023-01-27T07:30:02.670Z,86.53
2023-01-27T07:32:35.694Z,86.41
2023-01-27T07:35:08.768Z,86.40
2023-01-27T07:37:37.365Z,86.06
2023-01-27T07:40:12.045Z,86.04
2023-01-27T07:42:46.712Z,86.43
2023-01-27T07:45:26.698Z,85.93
2023-01-27T07:47:59.676Z,86.25
2023-01-27T07:50:33.739Z,86.00
2023-01-27T07:55:43.706Z,86.17
2023-01-27T07:58:23.698Z,86.03
2023-01-27T08:00:50.362Z,86.28
2023-01-27T08:03:33.822Z,85.82
2023-01-27T08:06:05.903Z,86.08
2023-01-27T08:08:38.663Z,86.01
2023-01-27T08:11:10.795Z,86.08
2023-01-27T08:13:44.746Z,86.18
2023-01-27T08:16:14.603Z,86.06
2023-01-27T08:18:47.666Z,85.99
2023-01-27T08:21:14.311Z,86.03
2023-01-27T08:23:40.966Z,85.69
2023-01-27T08:26:14.705Z,85.85
2023-01-27T08:28:41.579Z,85.93
2023-01-27T08:31:18.738Z,85.61
2023-01-27T08:33:50.642Z,85.84
2023-01-27T08:36:25.684Z,85.95
2023-01-27T08:38:58.656Z,85.65
2023-01-27T08:41:33.708Z,85.69
2023-01-27T08:44:00.463Z,85.26
2023-01-27T08:46:33.706Z,85.22
2023-01-27T08:49:06.696Z,85.16
2023-01-27T08:51:39.722Z,85.02
2023-01-27T08:54:13.738Z,85.45
2023-01-27T08:56:53.696Z,85.26
2023-01-27T08:59:33.752Z,84.84
2023-01-27T09:02:06.749Z,85.22
2023-01-27T09:04:39.719Z,84.80
2023-01-27T09:07:12.720Z,85.00
2023-01-27T09:09:39.362Z,85.03
2023-01-27T09:12:12.764Z,84.74
2023-01-27T09:14:46.691Z,84.55
2023-01-27T09:17:23.743Z,84.65
2023-01-27T09:19:50.598Z,84.46
2023-01-27T09:22:23.706Z,84.46
2023-01-27T09:24:56.679Z,84.37
2023-01-27T09:27:37.239Z,84.03
2023-01-27T09:30:13.044Z,83.39
2023-01-27T09:32:40.660Z,82.75
2023-01-27T09:35:15.284Z,82.95
2023-01-27T09:37:53.714Z,82.10
2023-01-27T09:40:38.755Z,82.48
2023-01-27T09:43:19.550Z,82.18
2023-01-27T09:46:26.740Z,82.21
2023-01-27T09:49:14.541Z,82.03
2023-01-27T09:51:57.798Z,80.68
2023-01-27T09:54:45.928Z,80.44
2023-01-27T09:57:59.769Z,80.26
2023-01-27T10:00:49.013Z,80.84
2023-01-27T10:03:40.761Z,80.37
2023-01-27T10:06:10.581Z,81.35
2023-01-27T10:09:31.789Z,81.01
2023-01-27T10:12:14.613Z,81.38
2023-01-27T10:14:57.715Z,80.90
2023-01-27T10:17:43.986Z,81.64
2023-01-27T10:20:32.751Z,81.40
2023-01-27T10:23:11.505Z,81.40
2023-01-27T10:25:55.725Z,81.02
2023-01-27T10:28:24.424Z,81.36
2023-01-27T10:31:07.791Z,82.05
2023-01-27T10:33:54.045Z,82.05
2023-01-27T10:37:06.762Z,81.60
2023-01-27T10:39:56.698Z,81.53
2023-01-27T10:42:23.207Z,81.89
2023-01-27T10:45:14.693Z,81.76
2023-01-27T10:48:13.792Z,81.53
2023-01-27T10:50:43.228Z,81.90
2023-01-27T10:53:44.845Z,81.27
2023-01-27T10:56:28.793Z,81.07
2023-01-27T10:59:12.705Z,81.02
2023-01-27T11:01:46.777Z,80.59
2023-01-27T11:04:47.741Z,80.96
2023-01-27T11:07:21.624Z,80.67
2023-01-27T11:10:08.825Z,80.79
2023-01-27T11:12:41.577Z,80.02
2023-01-27T11:15:31.699Z,80.76
2023-01-27T11:18:04.589Z,80.62
2023-01-27T11:20:41.771Z,80.57
2023-01-27T11:23:18.593Z,80.55
2023-01-27T11:26:03.756Z,80.56
2023-01-27T11:28:42.835Z,80.76
2023-01-27T11:31:38.950Z,80.74
2023-01-27T11:34:40.131Z,80.82
2023-01-27T11:37:33.777Z,80.78
2023-01-27T11:40:01.351Z,80.51
2023-01-27T11:42:40.755Z,80.79
2023-01-27T11:45:13.577Z,80.57
2023-01-27T11:47:48.775Z,81.08
2023-01-27T11:50:28.574Z,80.63
2023-01-27T11:53:11.720Z,80.81
2023-01-27T11:55:46.096Z,80.65
2023-01-27T11:58:49.805Z,80.61
2023-01-27T12:01:24.105Z,80.50
2023-01-27T12:04:26.813Z,80.53
2023-01-27T12:07:05.814Z,79.94
2023-01-27T12:09:41.813Z,80.28
2023-01-27T12:12:28.792Z,80.29
2023-01-27T12:15:06.885Z,80.20
2023-01-27T12:17:40.347Z,79.71
2023-01-27T12:20:53.813Z,78.81
2023-01-27T12:23:34.749Z,78.79
2023-01-27T12:26:04.811Z,79.05
2023-01-27T12:28:58.739Z,79.24
2023-01-27T12:31:37.864Z,78.98
2023-01-27T12:34:33.826Z,79.29
2023-01-27T12:37:07.796Z,79.68
2023-01-27T12:39:42.072Z,80.01
2023-01-27T12:42:43.779Z,80.38
2023-01-27T12:45:31.751Z,80.28
2023-01-27T12:48:11.729Z,80.34
2023-01-27T12:50:47.741Z,80.70
2023-01-27T12:53:27.082Z,80.54
2023-01-27T12:55:59.884Z,80.54
2023-01-27T12:58:46.798Z,80.55
2023-01-27T13:01:44.878Z,80.57
2023-01-27T13:04:21.960Z,80.18
2023-01-27T13:07:00.760Z,79.85
2023-01-27T13:09:52.801Z,80.03
2023-01-27T13:12:24.038Z,80.21
2023-01-27T13:15:27.865Z,80.01
2023-01-27T13:18:03.811Z,80.16
2023-01-27T13:20:57.848Z,79.94
2023-01-27T13:23:32.621Z,79.95
2023-01-27T13:26:11.836Z,80.36
2023-01-27T13:29:00.115Z,78.74
2023-01-27T13:31:45.976Z,79.52
2023-01-27T13:34:38.744Z,78.89
2023-01-27T13:37:30.864Z,78.87
2023-01-27T13:40:29.854Z,79.37
2023-01-27T13:43:30.913Z,79.05
2023-01-27T13:46:17.358Z,77.93
2023-01-27T13:48:55.837Z,78.33
2023-01-27T13:51:25.440Z,78.46
2023-01-27T13:54:05.814Z,78.47
2023-01-27T13:57:12.806Z,79.06
2023-01-27T14:00:14.226Z,79.07
2023-01-27T14:03:24.890Z,79.38
2023-01-27T14:06:11.840Z,79.15
2023-01-27T14:08:57.836Z,78.97
2023-01-27T14:11:35.316Z,79.21
2023-01-27T14:14:26.812Z,78.91
2023-01-27T14:17:12.177Z,78.85
2023-01-27T14:20:03.799Z,78.87
2023-01-27T14:23:05.915Z,78.86
2023-01-27T14:26:06.920Z,79.01
2023-01-27T14:29:04.892Z,78.65
2023-01-27T14:31:44.359Z,78.43
2023-01-27T14:34:35.803Z,78.65
2023-01-27T14:37:24.876Z,77.81
2023-01-27T14:40:19.803Z,78.35
2023-01-27T14:43:13.641Z,78.19
2023-01-27T14:45:53.835Z,78.30
2023-01-27T14:48:55.886Z,78.65
2023-01-27T14:51:37.872Z,78.93
2023-01-27T14:54:44.831Z,78.87
2023-01-27T14:57:57.922Z,78.44
2023-01-27T15:00:51.951Z,77.89
2023-01-27T15:03:37.464Z,78.13
2023-01-27T15:06:28.875Z,78.00
2023-01-27T15:09:07.956Z,77.93
2023-01-27T15:11:56.897Z,78.25
2023-01-27T15:15:03.892Z,78.46
2023-01-27T15:17:55.892Z,77.92
2023-01-27T15:20:28.571Z,78.03
2023-01-27T15:23:28.943Z,78.55
2023-01-27T15:26:01.368Z,77.85
2023-01-27T15:28:39.909Z,78.06
2023-01-27T15:31:23.085Z,78.54
2023-01-27T15:34:11.904Z,78.23
2023-01-27T15:36:46.924Z,78.05
2023-01-27T15:39:21.861Z,78.07
2023-01-27T15:42:17.366Z,78.42
2023-01-27T15:45:01.550Z,78.38
2023-01-27T15:47:39.991Z,78.53
2023-01-27T15:50:36.973Z,78.35
2023-01-27T15:53:19.901Z,78.61
2023-01-27T15:56:01.918Z,78.42
2023-01-27T15:58:46.217Z,78.77
2023-01-27T16:01:40.882Z,78.81
2023-01-27T16:04:16.894Z,78.21
2023-01-27T16:07:27.871Z,78.91
2023-01-27T16:09:55.540Z,78.61
2023-01-27T16:12:34.874Z,78.66
2023-01-27T16:15:01.480Z,78.63
2023-01-27T16:17:40.902Z,78.78
2023-01-27T16:20:32.964Z,78.69
2023-01-27T16:23:27.909Z,77.69
2023-01-27T16:26:08.758Z,77.56
2023-01-27T16:28:43.903Z,74.57
2023-01-27T16:31:16.740Z,68.87
2023-01-27T16:33:55.969Z,71.25
2023-01-27T16:36:37.922Z,73.56
2023-01-27T16:39:42.889Z,74.89
2023-01-27T16:42:14.693Z,75.86
2023-01-27T16:44:49.912Z,76.01
2023-01-27T16:47:41.451Z,76.25
2023-01-27T16:50:38.915Z,76.75
2023-01-27T16:53:15.653Z,76.21
2023-01-27T16:56:13.921Z,76.45
2023-01-27T16:58:50.090Z,77.03
2023-01-27T17:01:36.881Z,77.09
2023-01-27T17:04:19.510Z,76.94
2023-01-27T17:06:54.057Z,77.24
2023-01-27T17:09:38.918Z,77.15
2023-01-27T17:12:27.288Z,77.43
2023-01-27T17:15:00.952Z,77.39
2023-01-27T17:17:38.984Z,77.65
2023-01-27T17:20:07.898Z,77.85
2023-01-27T17:23:04.030Z,78.04
2023-01-27T17:25:42.965Z,78.46
2023-01-27T17:28:17.160Z,78.59
2023-01-27T17:30:52.984Z,78.40
2023-01-27T17:33:27.912Z,78.35
2023-01-27T17:36:04.944Z,78.52
2023-01-27T17:38:49.661Z,78.73
2023-01-27T17:41:40.963Z,78.72
2023-01-27T17:44:13.661Z,78.51
2023-01-27T17:46:47.958Z,79.05
2023-01-27T17:49:18.906Z,78.85
2023-01-27T17:51:55.982Z,78.84
2023-01-27T17:54:41.977Z,79.11
2023-01-27T17:57:32.836Z,79.20
2023-01-27T18:00:17.939Z,78.93
2023-01-27T18:03:20.934Z,78.90
2023-01-27T18:05:56.974Z,79.06
2023-01-27T18:08:23.763Z,79.33
2023-01-27T18:10:58.118Z,79.19
2023-01-27T18:13:33.944Z,78.91
2023-01-27T18:16:19.583Z,79.05
2023-01-27T18:18:53.992Z,79.25
2023-01-27T18:21:31.907Z,78.92
2023-01-27T18:24:05.940Z,79.13
2023-01-27T18:26:40.692Z,79.07
2023-01-27T18:29:19.918Z,79.63
2023-01-27T18:31:58.366Z,79.82
2023-01-27T18:34:38.005Z,79.62
2023-01-27T18:37:27.985Z,79.24
2023-01-27T18:40:02.948Z,79.54
2023-01-27T18:42:38.023Z,79.77
2023-01-27T18:45:12.647Z,79.40
2023-01-27T18:47:45.943Z,79.09
2023-01-27T18:50:30.740Z,79.58
2023-01-27T18:53:03.950Z,79.61
2023-01-27T18:55:37.013Z,79.23
2023-01-27T18:58:19.004Z,79.22
2023-01-27T19:00:51.045Z,79.55
2023-01-27T19:03:31.028Z,79.24
2023-01-27T19:05:57.871Z,79.15
2023-01-27T19:08:31.979Z,79.20
2023-01-27T19:10:58.626Z,79.29
2023-01-27T19:13:32.028Z,79.13
2023-01-27T19:15:59.878Z,79.34
2023-01-27T19:18:39.008Z,79.41
2023-01-27T19:21:12.969Z,79.70
2023-01-27T19:23:48.353Z,79.45
2023-01-27T19:26:24.959Z,79.36
2023-01-27T19:28:55.050Z,79.49
2023-01-27T19:31:28.970Z,79.61
2023-01-27T19:34:02.021Z,79.55
2023-01-27T19:36:41.110Z,79.37
2023-01-27T19:39:13.977Z,79.75
2023-01-27T19:41:47.968Z,79.84
2023-01-27T19:44:15.565Z,80.00
2023-01-27T19:46:48.976Z,79.56
2023-01-27T19:49:19.796Z,79.72
2023-01-27T19:51:52.945Z,79.58
2023-01-27T19:54:25.958Z,79.76
2023-01-27T19:56:59.233Z,79.55
2023-01-27T19:59:32.547Z,79.51
2023-01-27T20:02:06.132Z,79.86
2023-01-27T20:04:33.413Z,79.78
2023-01-27T20:07:06.973Z,79.62
2023-01-27T20:09:40.067Z,79.62
2023-01-27T20:12:15.060Z,79.99
2023-01-27T20:14:48.987Z,79.84
2023-01-27T20:17:15.660Z,79.70
2023-01-27T20:19:49.032Z,79.87
2023-01-27T20:22:15.669Z,79.58
2023-01-27T20:24:48.994Z,79.87
2023-01-27T20:27:15.695Z,79.96
2023-01-27T20:29:49.063Z,79.88
2023-01-27T20:32:16.131Z,80.02
2023-01-27T20:34:48.997Z,79.98
2023-01-27T20:37:15.982Z,80.09
2023-01-27T20:39:49.034Z,79.89
2023-01-27T20:42:22.110Z,79.65
2023-01-27T20:44:54.924Z,79.63
2023-01-27T20:47:28.009Z,79.46
2023-01-27T20:49:54.649Z,79.32
2023-01-27T20:52:21.502Z,78.75
2023-01-27T20:54:55.032Z,79.06
2023-01-27T20:57:30.076Z,79.13
2023-01-27T21:00:11.051Z,79.03
2023-01-27T21:02:37.836Z,79.33
2023-01-27T21:05:11.185Z,79.30
2023-01-27T21:07:38.087Z,79.52
2023-01-27T21:10:11.989Z,79.38
2023-01-27T21:12:38.935Z,78.39
2023-01-27T21:15:16.454Z,78.53
2023-01-27T21:17:50.026Z,78.24
2023-01-27T21:20:17.044Z,78.08
2023-01-27T21:22:52.031Z,78.44
2023-01-27T21:25:19.390Z,78.51
2023-01-27T21:27:55.004Z,78.53
2023-01-27T21:30:21.658Z,78.25
2023-01-27T21:32:55.001Z,77.93
2023-01-27T21:35:28.069Z,77.71
2023-01-27T21:38:01.015Z,77.50
2023-01-27T21:40:34.021Z,77.54
2023-01-27T21:43:26.115Z,77.70
2023-01-27T21:46:00.096Z,77.59
2023-01-27T21:48:33.121Z,77.63
2023-01-27T21:50:59.789Z,76.42
2023-01-27T21:53:33.051Z,76.74
2023-01-27T21:56:07.707Z,76.63
2023-01-27T21:58:48.041Z,76.81
2023-01-27T22:01:14.829Z,76.52
2023-01-27T22:03:48.010Z,76.52
2023-01-27T22:06:15.568Z,75.84
2023-01-27T22:08:48.991Z,76.21
2023-01-27T22:11:15.707Z,75.28
2023-01-27T22:13:42.385Z,75.16
2023-01-27T22:16:21.031Z,75.40
2023-01-27T22:18:47.833Z,75.09
2023-01-27T22:21:21.203Z,74.90
2023-01-27T22:23:48.213Z,75.26
2023-01-27T22:26:22.085Z,75.59
2023-01-27T22:28:48.957Z,75.69
2023-01-27T22:31:22.039Z,75.57
2023-01-27T22:33:48.849Z,75.53
2023-01-27T22:36:22.136Z,75.67
2023-01-27T22:38:55.123Z,75.11
2023-01-27T22:41:28.142Z,75.23
2023-01-27T22:44:01.158Z,74.88
2023-01-27T22:46:34.071Z,75.54
2023-01-27T22:49:07.130Z,75.76
2023-01-27T22:51:33.938Z,75.77
2023-01-27T22:54:07.183Z,75.60
2023-01-27T22:56:33.995Z,75.88
2023-01-27T22:59:15.196Z,75.24
2023-01-27T23:01:42.055Z,74.73
2023-01-27T23:04:18.111Z,75.24
2023-01-27T23:06:44.892Z,75.25
2023-01-27T23:09:19.145Z,75.50
2023-01-27T23:11:46.186Z,75.20
2023-01-27T23:14:19.159Z,75.32
2023-01-27T23:16:46.156Z,75.30
2023-01-27T23:19:12.997Z,75.00
2023-01-27T23:21:46.158Z,75.38
2023-01-27T23:24:14.475Z,75.25
2023-01-27T23:26:48.212Z,75.39
2023-01-27T23:29:24.112Z,75.41
2023-01-27T23:31:59.282Z,75.33
2023-01-27T23:34:26.179Z,75.35
2023-01-27T23:36:59.177Z,75.52
2023-01-27T23:39:25.952Z,75.73
2023-01-27T23:41:59.164Z,75.89
2023-01-27T23:44:25.932Z,76.45
2023-01-27T23:46:59.110Z,76.28
2023-01-27T23:49:25.927Z,75.81
2023-01-27T23:51:59.207Z,75.92
2023-01-27T23:54:25.952Z,75.81
2023-01-27T23:56:52.789Z,75.49
2023-01-27T23:59:26.097Z,75.53
